Time;durP1;ratioP1;P1;durP2;ratioP2;P2;SDS_P1;SDS_P2;PMS_P1;PMS_P2;Temp;Humidity;BMP_temperature;BMP_pressure;BME280_temperature;BME280_humidity;BME280_pressure;Samples;Min_cycle;Max_cycle;Signal;HPM_P1;HPM_P2
2023/08/13 00:00:27;;;;;;;6.17;1.53;;;;;;;21.30;100.00;101142.44;5053072;28;20937;-70
2023/08/13 00:02:53;;;;;;;5.50;1.33;;;;;;;21.24;100.00;101145.81;5053042;28;20525;-70
2023/08/13 00:05:20;;;;;;;5.37;1.73;;;;;;;21.19;100.00;101130.34;5053202;28;20493;-70
2023/08/13 00:07:47;;;;;;;5.53;1.60;;;;;;;21.13;100.00;101135.34;5053283;28;20434;-70
2023/08/13 00:10:15;;;;;;;5.40;1.70;;;;;;;21.10;100.00;101132.53;5052928;28;20960;-70
2023/08/13 00:12:41;;;;;;;7.30;1.97;;;;;;;21.01;100.00;101138.22;5052805;28;20449;-70
2023/08/13 00:15:10;;;;;;;5.77;1.80;;;;;;;20.95;100.00;101141.63;5053142;28;20462;-70
2023/08/13 00:17:36;;;;;;;5.90;2.27;;;;;;;20.90;100.00;101151.75;5053160;28;20482;-70
2023/08/13 00:20:04;;;;;;;5.50;1.80;;;;;;;20.84;100.00;101155.13;5053053;28;20442;-70
2023/08/13 00:22:32;;;;;;;5.40;1.33;;;;;;;20.79;100.00;101153.44;5053497;28;20478;-70
2023/08/13 00:24:59;;;;;;;6.30;1.80;;;;;;;20.72;100.00;101152.47;5053318;28;20490;-70
2023/08/13 00:27:27;;;;;;;6.17;1.93;;;;;;;20.66;100.00;101160.19;5052720;28;20438;-70
2023/08/13 00:29:53;;;;;;;5.83;1.97;;;;;;;20.63;100.00;101155.44;5053120;28;20914;-70
2023/08/13 00:32:20;;;;;;;5.40;1.70;;;;;;;20.59;100.00;101158.09;5052986;28;20993;-70
2023/08/13 00:34:47;;;;;;;6.73;2.17;;;;;;;20.52;100.00;101159.84;5053259;28;20485;-70
2023/08/13 00:37:13;;;;;;;4.90;1.33;;;;;;;20.51;100.00;101159.06;5053014;28;20842;-70
2023/08/13 00:39:40;;;;;;;6.63;1.83;;;;;;;20.48;100.00;101159.75;5052568;28;20514;-70
2023/08/13 00:42:06;;;;;;;6.50;2.20;;;;;;;20.40;100.00;101149.69;5053321;28;20525;-70
2023/08/13 00:44:35;;;;;;;10.40;1.53;;;;;;;20.34;100.00;101157.41;5052822;28;20434;-70
2023/08/13 00:47:02;;;;;;;5.53;1.60;;;;;;;20.32;100.00;101161.66;5052872;28;20513;-70
2023/08/13 00:49:29;;;;;;;7.13;2.07;;;;;;;20.27;100.00;101162.72;5052526;28;20957;-70
2023/08/13 00:51:56;;;;;;;6.30;2.10;;;;;;;20.23;100.00;101167.34;5052853;28;20444;-70
2023/08/13 00:54:23;;;;;;;5.60;1.70;;;;;;;20.17;100.00;101177.78;5038611;28;20457;-70
2023/08/13 00:56:52;;;;;;;9.27;2.17;;;;;;;20.14;100.00;101172.19;5055960;28;20524;-70
2023/08/13 00:59:21;;;;;;;6.57;2.13;;;;;;;20.08;100.00;101179.09;5056526;28;20440;-70
2023/08/13 01:01:49;;;;;;;7.03;2.23;;;;;;;20.00;100.00;101180.03;5056333;28;20525;-70
2023/08/13 01:04:15;;;;;;;5.77;1.77;;;;;;;19.95;100.00;101180.28;5056206;28;20981;-70
2023/08/13 01:06:50;;;;;;;7.20;2.00;;;;;;;19.91;100.00;101186.47;5056248;28;20460;-70
2023/08/13 01:09:33;;;;;;;5.40;1.63;;;;;;;19.92;100.00;101190.03;5056336;28;20422;-70
2023/08/13 01:12:04;;;;;;;6.13;1.77;;;;;;;19.94;100.00;101197.94;5056144;28;20433;-70
2023/08/13 01:14:36;;;;;;;6.50;2.30;;;;;;;19.87;100.00;101196.56;5055847;28;20899;-70
2023/08/13 01:17:07;;;;;;;6.93;2.40;;;;;;;19.89;100.00;101197.03;5056217;28;20956;-70
2023/08/13 01:19:34;;;;;;;6.63;2.43;;;;;;;19.95;100.00;101194.84;5056447;28;20468;-70
2023/08/13 01:22:00;;;;;;;7.07;2.37;;;;;;;19.99;100.00;101200.44;5055739;28;21029;-70
2023/08/13 01:24:28;;;;;;;6.20;2.30;;;;;;;20.09;100.00;101202.69;5055973;28;20472;-70
2023/08/13 01:27:06;;;;;;;6.03;2.20;;;;;;;20.10;100.00;101202.34;5055752;28;20885;-70
2023/08/13 01:29:38;;;;;;;7.60;2.23;;;;;;;20.07;100.00;101199.50;5055465;28;20460;-70
2023/08/13 01:32:07;;;;;;;6.20;2.17;;;;;;;20.06;100.00;101197.91;5055823;28;20484;-70
2023/08/13 01:34:35;;;;;;;6.67;2.27;;;;;;;20.09;100.00;101202.69;5056084;28;20534;-70
2023/08/13 01:37:03;;;;;;;6.20;1.97;;;;;;;20.10;100.00;101209.81;5055535;28;20492;-70
2023/08/13 01:39:32;;;;;;;7.10;2.47;;;;;;;20.11;100.00;101206.69;5056023;28;20521;-70
2023/08/13 01:41:59;;;;;;;6.83;2.37;;;;;;;20.10;100.00;101215.31;5055593;28;20446;-70
2023/08/13 01:44:25;;;;;;;6.40;2.07;;;;;;;20.11;100.00;101214.16;5055524;28;20782;-70
2023/08/13 01:46:52;;;;;;;6.37;2.50;;;;;;;20.13;100.00;101214.59;5055815;28;20545;-70
2023/08/13 01:49:20;;;;;;;7.50;2.30;;;;;;;20.15;100.00;101223.31;5055628;28;20517;-70
2023/08/13 01:51:46;;;;;;;7.30;2.10;;;;;;;20.16;100.00;101228.47;5055390;28;20524;-70
2023/08/13 01:54:13;;;;;;;6.03;2.03;;;;;;;20.14;100.00;101227.19;5055589;28;20450;-70
2023/08/13 01:56:41;;;;;;;5.83;1.83;;;;;;;20.12;100.00;101224.81;5055536;28;20565;-70
2023/08/13 01:59:08;;;;;;;13.80;2.87;;;;;;;20.11;100.00;101222.41;5055302;28;20525;-70
2023/08/13 02:01:34;;;;;;;7.10;2.53;;;;;;;20.14;100.00;101227.19;5054958;28;20492;-70
2023/08/13 02:04:01;;;;;;;9.03;3.10;;;;;;;20.16;100.00;101224.91;5054344;28;20450;-70
2023/08/13 02:06:30;;;;;;;6.40;1.93;;;;;;;20.13;100.00;101223.63;5054991;28;20553;-70
2023/08/13 02:08:56;;;;;;;7.40;2.63;;;;;;;20.08;100.00;101221.16;5055348;28;20455;-70
2023/08/13 02:11:23;;;;;;;8.30;2.40;;;;;;;20.07;100.00;101232.50;5054660;28;20944;-70
2023/08/13 02:13:51;;;;;;;8.60;3.00;;;;;;;20.10;100.00;101227.13;5086712;22;20493;-70
2023/08/13 02:16:18;;;;;;;7.70;2.60;;;;;;;20.09;100.00;101225.50;5075056;28;20465;-69
2023/08/13 02:18:44;;;;;;;7.80;2.90;;;;;;;20.06;100.00;101228.97;5074847;28;20490;-70
2023/08/13 02:21:11;;;;;;;5.97;1.97;;;;;;;20.01;100.00;101229.22;5074679;28;20440;-70
2023/08/13 02:23:37;;;;;;;6.67;2.20;;;;;;;19.98;100.00;101240.09;5074536;28;20925;-70
2023/08/13 02:26:04;;;;;;;7.53;2.53;;;;;;;19.96;100.00;101240.44;5074916;28;20544;-70
2023/08/13 02:28:31;;;;;;;5.90;2.00;;;;;;;19.90;100.00;101237.13;5074828;28;20524;-70
2023/08/13 02:30:59;;;;;;;7.03;2.03;;;;;;;19.83;100.00;101241.63;5074995;28;20520;-70
2023/08/13 02:33:25;;;;;;;6.40;1.90;;;;;;;19.78;100.00;101244.63;5074592;28;20532;-69
2023/08/13 02:35:52;;;;;;;6.50;2.40;;;;;;;19.73;100.00;101250.34;5074170;28;20485;-70
2023/08/13 02:38:18;;;;;;;6.10;2.17;;;;;;;19.68;100.00;101250.59;5074318;28;20989;-69
2023/08/13 02:40:45;;;;;;;7.13;2.40;;;;;;;19.60;100.00;101244.88;5074115;28;20883;-71
2023/08/13 02:43:12;;;;;;;6.30;1.90;;;;;;;19.55;100.00;101236.84;5074860;28;20936;-71
2023/08/13 02:45:38;;;;;;;6.60;1.87;;;;;;;19.53;100.00;101252.09;5074327;28;20967;-69
2023/08/13 02:48:07;;;;;;;7.47;2.67;;;;;;;19.48;100.00;101255.88;5074262;28;20438;-70
2023/08/13 02:50:33;;;;;;;6.83;2.10;;;;;;;19.45;100.00;101264.00;5074291;28;20532;-70
2023/08/13 02:53:00;;;;;;;6.23;2.13;;;;;;;19.38;100.00;101259.88;5073862;28;20528;-70
2023/08/13 02:55:27;;;;;;;6.53;2.50;;;;;;;19.33;100.00;101260.09;5074452;28;20898;-70
2023/08/13 02:57:53;;;;;;;6.60;2.43;;;;;;;19.27;100.00;101250.50;5074490;28;20579;-68
2023/08/13 03:00:21;;;;;;;6.10;2.00;;;;;;;19.25;100.00;101260.22;5074119;28;20449;-71
2023/08/13 03:02:47;;;;;;;7.70;2.50;;;;;;;19.22;100.00;101252.69;5074363;28;20441;-70
2023/08/13 03:05:15;;;;;;;8.40;3.07;;;;;;;19.18;100.00;101266.28;5073883;28;21034;-70
2023/08/13 03:07:42;;;;;;;10.93;3.00;;;;;;;19.12;100.00;101259.41;5073597;28;20524;-70
2023/08/13 03:10:09;;;;;;;17.63;3.63;;;;;;;19.07;100.00;101265.13;5073942;28;20524;-70
2023/08/13 03:12:36;;;;;;;7.40;2.20;;;;;;;19.03;100.00;101266.94;5074105;28;20445;-71
2023/08/13 03:15:03;;;;;;;7.10;2.63;;;;;;;18.98;100.00;101258.94;5074284;28;20547;-71
2023/08/13 03:17:30;;;;;;;7.80;2.30;;;;;;;18.90;100.00;101257.88;5073968;28;20572;-71
2023/08/13 03:19:58;;;;;;;7.73;2.73;;;;;;;18.81;100.00;101265.41;5074138;28;20516;-71
2023/08/13 03:22:26;;;;;;;8.53;3.20;;;;;;;18.78;100.00;101269.66;5073518;28;20963;-70
2023/08/13 03:24:53;;;;;;;7.00;2.53;;;;;;;18.75;100.00;101267.59;5074029;28;20548;-70
2023/08/13 03:27:20;;;;;;;6.30;2.17;;;;;;;18.71;100.00;101268.59;5073723;28;20517;-70
2023/08/13 03:29:46;;;;;;;8.00;2.53;;;;;;;18.70;100.00;101267.81;5073956;28;20476;-71
2023/08/13 03:32:13;;;;;;;8.20;2.83;;;;;;;18.69;100.00;101281.84;5073708;28;20437;-71
2023/08/13 03:34:39;;;;;;;6.07;2.20;;;;;;;18.62;100.00;101285.94;5073563;28;20476;-71
2023/08/13 03:37:06;;;;;;;9.47;2.63;;;;;;;18.57;100.00;101277.13;5074312;28;20571;-71
2023/08/13 03:39:34;;;;;;;7.17;2.77;;;;;;;18.52;100.00;101274.59;5073511;28;20531;-71
2023/08/13 03:42:00;;;;;;;9.97;2.60;;;;;;;18.54;100.00;101283.28;5073490;28;20452;-71
2023/08/13 03:44:27;;;;;;;7.40;2.60;;;;;;;18.56;100.00;101286.50;5073568;28;20883;-71
2023/08/13 03:46:54;;;;;;;6.47;2.13;;;;;;;18.56;100.00;101284.56;5073807;28;20461;-71
2023/08/13 03:49:20;;;;;;;5.43;1.77;;;;;;;18.54;100.00;101289.56;5073370;28;20795;-71
2023/08/13 03:51:47;;;;;;;6.20;1.63;;;;;;;18.51;100.00;101286.72;5073418;28;20434;-72
2023/08/13 03:54:13;;;;;;;7.07;2.30;;;;;;;18.53;100.00;101290.72;5073382;28;20441;-71
2023/08/13 03:56:41;;;;;;;7.50;2.37;;;;;;;18.55;100.00;101301.34;5073685;28;20548;-71
2023/08/13 03:59:08;;;;;;;6.97;2.70;;;;;;;18.54;100.00;101306.03;5073086;28;20988;-71
2023/08/13 04:01:35;;;;;;;6.63;2.27;;;;;;;18.57;100.00;101299.88;5073047;28;20524;-70
2023/08/13 04:04:01;;;;;;;5.90;1.83;;;;;;;18.54;100.00;101300.53;5073354;28;20492;-70
2023/08/13 04:06:28;;;;;;;11.30;2.47;;;;;;;18.54;100.00;101299.75;5073469;28;20453;-70
2023/08/13 04:08:54;;;;;;;8.23;2.70;;;;;;;18.54;100.00;101299.75;5073596;28;20433;-70
2023/08/13 04:11:21;;;;;;;7.53;2.30;;;;;;;18.55;100.00;101296.66;5073241;28;20498;-70
2023/08/13 04:13:49;;;;;;;7.47;2.13;;;;;;;18.58;100.00;101301.47;5073010;28;20449;-70
2023/08/13 04:16:16;;;;;;;8.77;2.40;;;;;;;18.60;100.00;101303.91;5073326;28;20870;-70
2023/08/13 04:18:42;;;;;;;6.83;2.20;;;;;;;18.61;100.00;101289.81;5072786;28;20568;-70
2023/08/13 04:21:09;;;;;;;6.63;2.13;;;;;;;18.60;100.00;101298.41;5072983;28;20803;-70
2023/08/13 04:23:35;;;;;;;6.40;2.50;;;;;;;18.61;100.00;101300.00;5073401;28;20461;-70
2023/08/13 04:26:02;;;;;;;8.50;2.97;;;;;;;18.63;100.00;101308.69;5073010;28;20519;-70
2023/08/13 04:28:29;;;;;;;5.67;2.03;;;;;;;18.65;100.00;101306.41;5075408;28;20437;-70
2023/08/13 04:30:58;;;;;;;6.70;2.13;;;;;;;18.69;100.00;101304.63;5076702;28;20809;-70
2023/08/13 04:33:24;;;;;;;7.07;1.63;;;;;;;18.72;100.00;101306.69;5076920;28;20445;-71
2023/08/13 04:35:53;;;;;;;7.00;2.07;;;;;;;18.76;100.00;101310.34;5077098;28;20574;-70
2023/08/13 04:38:20;;;;;;;7.33;1.97;;;;;;;18.80;100.00;101319.53;5076930;28;20579;-70
2023/08/13 04:40:47;;;;;;;7.03;2.20;;;;;;;18.82;100.00;101311.75;5077097;28;20443;-70
2023/08/13 04:43:14;;;;;;;6.83;2.03;;;;;;;18.87;100.00;101317.03;5076657;28;20488;-72
2023/08/13 04:45:40;;;;;;;6.00;2.00;;;;;;;18.93;100.00;101311.31;5076423;28;20502;-70
2023/08/13 04:48:08;;;;;;;6.03;2.27;;;;;;;18.97;100.00;101309.50;5076978;28;20516;-70
2023/08/13 04:50:35;;;;;;;6.40;2.20;;;;;;;18.95;100.00;101309.03;5076514;28;20543;-70
2023/08/13 04:53:02;;;;;;;5.80;1.90;;;;;;;19.00;100.00;101312.38;5076821;28;20471;-70
2023/08/13 04:55:28;;;;;;;7.57;2.10;;;;;;;19.07;100.00;101307.13;5076147;28;20461;-70
2023/08/13 04:57:55;;;;;;;7.87;2.87;;;;;;;19.13;100.00;101315.97;5076675;28;20524;-70
2023/08/13 05:00:22;;;;;;;6.53;2.23;;;;;;;19.16;100.00;101318.78;5076428;28;20469;-71
2023/08/13 05:02:48;;;;;;;6.40;2.37;;;;;;;19.19;100.00;101313.78;5076346;28;20481;-71
2023/08/13 05:05:16;;;;;;;9.33;1.63;;;;;;;19.24;100.00;101314.34;5076570;28;20453;-71
2023/08/13 05:07:43;;;;;;;13.97;2.20;;;;;;;19.28;100.00;101312.53;5076245;28;20611;-71
2023/08/13 05:10:10;;;;;;;10.63;2.10;;;;;;;19.34;100.00;101311.16;5076261;28;20498;-71
2023/08/13 05:12:37;;;;;;;6.60;2.07;;;;;;;19.45;100.00;101316.22;5075961;28;20456;-71
2023/08/13 05:15:05;;;;;;;6.40;1.77;;;;;;;19.53;100.00;101305.09;5076073;28;20457;-71
2023/08/13 05:17:34;;;;;;;8.93;2.20;;;;;;;19.54;100.00;101317.69;5076092;28;20564;-71
2023/08/13 05:20:01;;;;;;;6.17;1.97;;;;;;;19.55;100.00;101310.25;5076433;28;20619;-71
2023/08/13 05:22:29;;;;;;;7.83;1.60;;;;;;;19.60;100.00;101321.00;5076171;28;20492;-71
2023/08/13 05:24:56;;;;;;;14.33;2.00;;;;;;;19.63;100.00;101314.84;5075942;28;20811;-71
2023/08/13 05:27:22;;;;;;;6.60;1.37;;;;;;;19.65;100.00;101315.31;5075895;28;20480;-71
2023/08/13 05:29:49;;;;;;;5.90;1.60;;;;;;;19.70;100.00;101325.25;5075901;28;20803;-71
2023/08/13 05:32:16;;;;;;;9.47;1.47;;;;;;;19.68;100.00;101322.06;5076243;28;20441;-70
2023/08/13 05:34:44;;;;;;;6.50;1.50;;;;;;;19.63;100.00;101325.84;5076006;28;20449;-70
2023/08/13 05:37:11;;;;;;;6.10;1.70;;;;;;;19.73;100.00;101325.38;5076178;28;20762;-70
2023/08/13 05:39:39;;;;;;;6.93;1.60;;;;;;;19.70;100.00;101328.84;5074325;28;20481;-71
2023/08/13 05:42:06;;;;;;;5.60;1.57;;;;;;;19.79;100.00;101336.94;5075769;28;20528;-71
2023/08/13 05:44:33;;;;;;;6.00;1.70;;;;;;;19.81;100.00;101338.22;5075720;28;20437;-71
2023/08/13 05:46:59;;;;;;;5.47;1.77;;;;;;;19.86;100.00;101334.41;5075523;28;20513;-71
2023/08/13 05:49:26;;;;;;;5.80;1.60;;;;;;;19.88;100.00;101330.19;5075199;28;20889;-71
2023/08/13 05:51:53;;;;;;;5.50;1.40;;;;;;;19.96;100.00;101331.19;5075803;28;20433;-71
2023/08/13 05:54:19;;;;;;;5.40;1.30;;;;;;;19.98;100.00;101337.16;5075446;28;20442;-71
2023/08/13 05:56:48;;;;;;;6.53;1.60;;;;;;;19.97;100.00;101334.75;5075603;28;20461;-71
2023/08/13 05:59:15;;;;;;;6.40;1.93;;;;;;;19.99;100.00;101341.50;5075118;28;20575;-72
2023/08/13 06:01:42;;;;;;;5.50;1.60;;;;;;;19.96;100.00;101342.19;5075525;28;20520;-71
2023/08/13 06:04:09;;;;;;;6.10;1.57;;;;;;;19.99;100.00;101341.50;5075237;28;20433;-71
2023/08/13 06:06:35;;;;;;;7.30;1.50;;;;;;;19.96;100.00;101341.38;5075128;28;20461;-71
2023/08/13 06:09:02;;;;;;;6.50;2.17;;;;;;;20.00;100.00;101345.84;5075095;28;20537;-71
2023/08/13 06:11:29;;;;;;;6.67;1.50;;;;;;;19.96;100.00;101346.88;5074822;28;20441;-71
2023/08/13 06:13:57;;;;;;;7.03;1.63;;;;;;;19.96;100.00;101341.38;5074735;28;20502;-70
2023/08/13 06:16:24;;;;;;;7.80;1.60;;;;;;;20.01;100.00;101349.41;5074628;28;21034;-71
2023/08/13 06:18:50;;;;;;;5.50;1.30;;;;;;;20.11;100.00;101355.25;5074846;28;20477;-71
2023/08/13 06:21:17;;;;;;;5.50;1.40;;;;;;;20.16;100.00;101354.19;5074812;28;20469;-71
2023/08/13 06:23:43;;;;;;;5.43;1.43;;;;;;;20.21;100.00;101353.97;5074785;28;20441;-71
2023/08/13 06:26:10;;;;;;;6.10;1.80;;;;;;;20.31;100.00;101347.97;5074504;28;20960;-71
2023/08/13 06:28:37;;;;;;;5.63;1.23;;;;;;;20.42;100.00;101349.09;5074420;28;20494;-71
2023/08/13 06:31:06;;;;;;;5.00;1.10;;;;;;;20.52;100.00;101350.56;5075003;28;20445;-71
2023/08/13 06:33:32;;;;;;;6.57;1.23;;;;;;;20.64;100.00;101352.47;5074650;28;20470;-71
2023/08/13 06:35:59;;;;;;;5.63;1.53;;;;;;;20.64;98.73;101347.78;5074842;28;20545;-71
2023/08/13 06:38:28;;;;;;;5.43;1.50;;;;;;;20.76;99.12;101355.19;5074742;28;20516;-71
2023/08/13 06:40:54;;;;;;;4.97;1.07;;;;;;;20.80;94.87;101358.00;5074802;28;20541;-73
2023/08/13 06:43:21;;;;;;;5.47;1.43;;;;;;;20.86;93.87;101346.41;5074753;28;20525;-72
2023/08/13 06:45:47;;;;;;;5.83;1.10;;;;;;;20.88;92.26;101354.31;5074102;28;20463;-71
2023/08/13 06:48:15;;;;;;;8.53;1.60;;;;;;;20.95;92.20;101359.22;5074497;28;20434;-71
2023/08/13 06:50:42;;;;;;;7.10;1.77;;;;;;;21.06;91.60;101363.03;5073590;28;20459;-72
2023/08/13 06:53:08;;;;;;;5.80;1.60;;;;;;;21.13;91.61;101366.00;5074204;28;20540;-72
2023/08/13 06:55:35;;;;;;;5.60;1.40;;;;;;;21.22;90.98;101363.88;5074149;28;20460;-72
2023/08/13 06:58:02;;;;;;;4.97;1.10;;;;;;;21.30;90.06;101362.91;5073933;28;20514;-72
2023/08/13 07:00:28;;;;;;;7.50;1.00;;;;;;;21.33;90.70;101370.47;5074412;28;20476;-72
2023/08/13 07:02:55;;;;;;;6.20;1.20;;;;;;;21.44;88.53;101361.69;5074152;28;20809;-72
2023/08/13 07:05:23;;;;;;;7.70;1.77;;;;;;;21.50;87.75;101366.56;5074132;28;20476;-72
2023/08/13 07:07:50;;;;;;;5.20;1.20;;;;;;;21.52;88.32;101360.72;5074001;28;20437;-72
2023/08/13 07:10:16;;;;;;;5.77;1.10;;;;;;;21.48;83.83;101365.34;5073945;28;20444;-72
2023/08/13 07:12:43;;;;;;;5.13;1.07;;;;;;;21.47;84.03;101358.22;5073501;28;20976;-71
2023/08/13 07:15:10;;;;;;;5.30;1.13;;;;;;;21.47;85.26;101363.72;5074012;28;20484;-71
2023/08/13 07:17:37;;;;;;;4.53;0.70;;;;;;;21.45;85.99;101364.09;5073478;28;20819;-72
2023/08/13 07:20:09;;;;;;;5.63;1.37;;;;;;;21.49;85.46;101367.75;5074219;28;20499;-75
2023/08/13 07:22:38;;;;;;;5.70;1.27;;;;;;;21.45;84.39;101368.81;5074287;28;20437;-70
2023/08/13 07:25:05;;;;;;;6.00;1.30;;;;;;;21.42;78.43;101373.84;5074110;28;20472;-72
2023/08/13 07:27:32;;;;;;;6.50;1.77;;;;;;;21.47;81.03;101370.06;5073281;28;20951;-71
2023/08/13 07:29:58;;;;;;;11.20;1.50;;;;;;;21.45;83.08;101374.31;5073360;28;20554;-71
2023/08/13 07:32:25;;;;;;;5.40;1.20;;;;;;;21.55;83.99;101371.81;5073681;28;20532;-71
2023/08/13 07:34:52;;;;;;;5.63;1.37;;;;;;;21.69;83.21;101374.13;5073237;28;20864;-71
2023/08/13 07:37:18;;;;;;;5.10;1.10;;;;;;;21.78;81.51;101371.16;5073377;28;20506;-71
2023/08/13 07:39:46;;;;;;;4.70;0.87;;;;;;;21.83;76.22;101376.44;5073552;28;20568;-71
2023/08/13 07:42:14;;;;;;;5.70;1.17;;;;;;;21.85;76.58;101377.66;5073631;28;20445;-71
2023/08/13 07:44:40;;;;;;;6.07;1.10;;;;;;;21.87;72.95;101380.88;5073428;28;20445;-71
2023/08/13 07:47:07;;;;;;;14.73;1.30;;;;;;;21.94;74.01;101377.47;5073830;28;20524;-71
2023/08/13 07:49:33;;;;;;;4.60;0.80;;;;;;;22.03;75.36;101374.53;5073177;28;20847;-71
2023/08/13 07:52:00;;;;;;;5.23;0.97;;;;;;;22.04;71.47;101378.88;5073598;28;20477;-71
2023/08/13 07:54:28;;;;;;;4.97;1.30;;;;;;;22.09;71.42;101390.44;5073075;28;20929;-71
2023/08/13 07:56:56;;;;;;;8.93;1.60;;;;;;;22.16;73.17;101381.53;5073720;28;20461;-71
2023/08/13 07:59:23;;;;;;;4.70;1.00;;;;;;;22.26;74.45;101389.25;5073030;28;20481;-71
2023/08/13 08:01:50;;;;;;;6.30;1.37;;;;;;;22.38;75.74;101383.59;5073695;28;20438;-71
2023/08/13 08:04:17;;;;;;;5.17;1.47;;;;;;;22.44;78.59;101377.78;5077374;28;20437;-71
2023/08/13 08:06:43;;;;;;;5.63;1.30;;;;;;;22.53;74.83;101387.47;5078014;28;20465;-71
2023/08/13 08:09:10;;;;;;;5.70;1.00;;;;;;;22.65;74.01;101384.56;5077059;28;20939;-71
2023/08/13 08:11:37;;;;;;;4.70;0.90;;;;;;;22.67;72.02;101387.78;5077298;28;20812;-71
2023/08/13 08:14:05;;;;;;;5.90;1.20;;;;;;;22.70;70.25;101386.22;5091857;22;20505;-69
2023/08/13 08:16:31;;;;;;;5.60;1.03;;;;;;;22.72;69.63;101378.41;5077677;28;20459;-69
2023/08/13 08:18:58;;;;;;;7.00;1.40;;;;;;;22.84;71.64;101374.66;5077552;28;20477;-69
2023/08/13 08:21:25;;;;;;;7.97;1.17;;;;;;;22.99;71.22;101384.06;5077604;28;20512;-69
2023/08/13 08:23:51;;;;;;;4.83;1.00;;;;;;;23.02;66.70;101380.56;5077526;28;20527;-68
2023/08/13 08:26:18;;;;;;;5.93;1.20;;;;;;;23.05;67.02;101380.63;5077364;28;20544;-68
2023/08/13 08:28:45;;;;;;;7.70;1.63;;;;;;;23.18;70.07;101375.72;5077588;28;20469;-73
2023/08/13 08:31:12;;;;;;;5.00;1.20;;;;;;;23.19;67.91;101371.78;5077391;28;20519;-73
2023/08/13 08:33:39;;;;;;;11.93;1.50;;;;;;;23.21;70.13;101369.47;5076933;28;21041;-70
2023/08/13 08:36:06;;;;;;;4.80;0.80;;;;;;;23.18;67.82;101364.66;5077213;28;20468;-70
2023/08/13 08:38:33;;;;;;;5.90;1.20;;;;;;;23.36;68.15;101374.06;5077270;28;20449;-70
2023/08/13 08:41:00;;;;;;;5.20;1.30;;;;;;;23.47;70.41;101367.94;5077170;28;20528;-70
2023/08/13 08:43:30;;;;;;;4.93;1.07;;;;;;;23.60;69.89;101366.56;5076625;28;20448;-70
2023/08/13 08:45:57;;;;;;;5.43;1.60;;;;;;;23.56;67.36;101368.47;5077043;28;20468;-71
2023/08/13 08:48:27;;;;;;;7.60;1.40;;;;;;;23.54;69.30;101368.03;5077063;28;20449;-70
2023/08/13 08:50:54;;;;;;;4.80;1.00;;;;;;;23.58;64.94;101372.44;5077012;28;20477;-70
2023/08/13 08:53:21;;;;;;;5.30;1.50;;;;;;;23.63;63.73;101371.34;5076616;28;20437;-70
2023/08/13 08:55:49;;;;;;;5.70;0.97;;;;;;;23.65;65.68;101369.84;5077060;28;20515;-72
2023/08/13 08:58:15;;;;;;;6.37;1.47;;;;;;;23.70;64.14;101373.47;5077003;28;20465;-72
2023/08/13 09:00:42;;;;;;;9.33;1.20;;;;;;;23.77;63.87;101368.81;5076809;28;20567;-72
2023/08/13 09:03:09;;;;;;;4.90;1.10;;;;;;;23.85;66.14;101378.03;5076831;28;20524;-71
2023/08/13 09:05:38;;;;;;;5.60;1.40;;;;;;;23.96;67.77;101367.16;5076628;28;20551;-69
2023/08/13 09:08:10;;;;;;;8.70;1.13;;;;;;;23.83;63.33;101369.31;5076379;28;20932;-70
2023/08/13 09:10:37;;;;;;;7.77;1.60;;;;;;;23.83;63.16;101374.84;5077500;28;20450;-71
2023/08/13 09:13:04;;;;;;;7.03;1.30;;;;;;;23.85;66.08;101375.28;5075842;28;20756;-71
2023/08/13 09:15:30;;;;;;;6.00;1.40;;;;;;;23.90;62.34;101367.44;5075182;28;20964;-70
2023/08/13 09:17:59;;;;;;;6.10;1.30;;;;;;;23.86;63.88;101363.84;5075740;28;20905;-70
2023/08/13 09:20:26;;;;;;;6.47;1.47;;;;;;;23.94;62.63;101372.25;5075402;28;20568;-70
2023/08/13 09:22:53;;;;;;;6.00;1.13;;;;;;;23.92;64.50;101367.88;5075643;28;20524;-70
2023/08/13 09:25:21;;;;;;;6.90;1.70;;;;;;;23.77;65.16;101363.28;5075034;28;20458;-70
2023/08/13 09:27:48;;;;;;;6.80;2.03;;;;;;;23.97;64.54;101354.91;5075115;28;20465;-70
2023/08/13 09:30:26;;;;;;;5.23;1.07;;;;;;;24.19;63.71;101351.25;5074816;28;20844;-71
2023/08/13 09:32:53;;;;;;;5.17;1.07;;;;;;;24.14;60.33;101349.59;5075329;28;20476;-72
2023/08/13 09:35:20;;;;;;;4.80;1.27;;;;;;;24.18;63.40;101346.88;5075107;28;20458;-71
2023/08/13 09:37:47;;;;;;;6.43;1.60;;;;;;;24.27;60.90;101350.16;5075525;28;20445;-72
2023/08/13 09:40:15;;;;;;;8.93;1.50;;;;;;;24.38;59.02;101353.09;5074734;28;21091;-69
2023/08/13 09:42:44;;;;;;;5.17;1.17;;;;;;;24.49;59.92;101350.47;5075003;28;20478;-68
2023/08/13 09:45:12;;;;;;;6.03;1.50;;;;;;;24.41;57.25;101355.13;5075077;28;20532;-69
2023/08/13 09:47:42;;;;;;;6.80;1.50;;;;;;;24.48;58.39;101351.63;5075325;28;20444;-70
2023/08/13 09:50:12;;;;;;;9.00;1.57;;;;;;;24.39;58.16;101352.75;5074791;28;20440;-70
2023/08/13 09:52:43;;;;;;;7.50;1.17;;;;;;;24.46;59.57;101352.00;5075290;28;20841;-70
2023/08/13 09:55:13;;;;;;;9.27;1.87;;;;;;;24.45;58.81;101338.56;5075131;28;20481;-70
2023/08/13 09:57:43;;;;;;;5.47;1.20;;;;;;;24.47;58.84;101344.50;5074740;28;20542;-70
2023/08/13 10:00:12;;;;;;;5.23;1.03;;;;;;;24.47;59.60;101345.28;5075020;28;20544;-70
2023/08/13 10:02:39;;;;;;;5.43;1.20;;;;;;;24.62;56.25;101351.81;5074717;28;20853;-69
2023/08/13 10:05:07;;;;;;;4.73;0.87;;;;;;;24.81;54.69;101351.63;5074245;28;20549;-71
2023/08/13 10:07:35;;;;;;;6.90;1.40;;;;;;;24.98;56.00;101341.91;5074523;28;20468;-70
2023/08/13 10:10:03;;;;;;;5.27;1.10;;;;;;;25.03;55.07;101341.56;5074922;28;20528;-70
2023/08/13 10:12:30;;;;;;;5.10;1.10;;;;;;;25.11;54.81;101348.78;5033011;28;1193022;-70
2023/08/13 10:14:59;;;;;;;5.30;1.60;;;;;;;25.23;57.18;101338.56;5075267;28;20457;-69
2023/08/13 10:17:27;;;;;;;5.73;1.60;;;;;;;25.21;56.74;101340.94;5075402;28;20438;-73
2023/08/13 10:19:56;;;;;;;5.10;1.13;;;;;;;25.19;53.54;101346.88;5075504;28;20485;-71
2023/08/13 10:22:32;;;;;;;6.60;1.33;;;;;;;25.21;52.86;101352.84;5075045;28;20461;-70
2023/08/13 10:24:59;;;;;;;6.13;1.43;;;;;;;25.18;54.53;101356.38;5074145;28;20826;-71
2023/08/13 10:27:26;;;;;;;4.90;1.00;;;;;;;25.27;52.06;101350.50;5075192;28;20498;-72
2023/08/13 10:30:05;;;;;;;6.13;1.23;;;;;;;25.46;53.62;101333.63;5075480;28;20441;-72
2023/08/13 10:32:31;;;;;;;6.20;1.60;;;;;;;25.53;51.55;101349.53;5075053;28;20425;-72
2023/08/13 10:34:58;;;;;;;5.27;0.97;;;;;;;25.72;52.03;101343.75;5075363;28;20547;-71
2023/08/13 10:37:25;;;;;;;4.60;0.90;;;;;;;25.83;51.88;101355.72;5074717;28;20860;-73
2023/08/13 10:40:08;;;;;;;5.00;1.10;;;;;;;25.92;50.73;101356.19;5074962;28;20571;-71
2023/08/13 10:42:51;;;;;;;5.53;1.27;;;;;;;26.01;52.02;101360.59;5075187;28;20528;-73
2023/08/13 10:45:20;;;;;;;6.10;1.30;;;;;;;26.16;50.98;101362.25;5075154;28;20465;-73
2023/08/13 10:47:50;;;;;;;6.40;1.77;;;;;;;26.17;50.44;101358.31;5075066;28;20449;-71
2023/08/13 10:50:27;;;;;;;5.57;1.50;;;;;;;26.08;51.66;101363.41;5074187;28;20491;-71
2023/08/13 10:52:55;;;;;;;4.70;1.00;;;;;;;26.22;50.43;101359.91;5074305;28;20456;-71
2023/08/13 10:55:23;;;;;;;6.50;1.47;;;;;;;26.33;51.40;101358.75;5074587;28;20933;-70
2023/08/13 10:57:51;;;;;;;4.40;0.90;;;;;;;26.47;51.30;101362.81;5074440;28;20455;-72
2023/08/13 11:00:20;;;;;;;8.60;1.50;;;;;;;26.65;51.18;101355.34;5074791;28;20485;-72
2023/08/13 11:02:51;;;;;;;7.87;1.57;;;;;;;26.62;48.33;101358.91;5074453;28;20437;-70
2023/08/13 11:05:18;;;;;;;5.07;1.23;;;;;;;26.54;49.69;101352.53;5074314;28;20453;-70
2023/08/13 11:07:44;;;;;;;4.73;1.10;;;;;;;26.60;48.58;101364.06;5074339;28;20433;-70
2023/08/13 11:10:16;;;;;;;4.63;1.00;;;;;;;26.55;49.39;101343.00;5073901;28;20516;-70
2023/08/13 11:12:42;;;;;;;4.93;1.00;;;;;;;26.67;49.99;101341.84;5074112;28;20499;-71
2023/08/13 11:15:09;;;;;;;5.20;1.20;;;;;;;26.74;48.87;101350.22;5073885;28;20896;-72
2023/08/13 11:17:37;;;;;;;6.67;1.40;;;;;;;26.82;47.14;101349.03;5074260;28;20441;-71
2023/08/13 11:20:05;;;;;;;5.40;1.00;;;;;;;26.73;49.28;101351.41;5074601;28;20539;-71